createdAt,value
2023-12-30T00:04:07.366Z,96718.63
2023-12-30T00:09:10.992Z,96717.47
2023-12-30T00:14:14.273Z,96729.09
2023-12-30T00:19:19.388Z,96727.03
2023-12-30T00:24:22.775Z,96732.34
2023-12-30T00:29:26.926Z,96715.19
2023-12-30T00:34:34.652Z,96721.38
2023-12-30T00:39:37.860Z,96744.97
2023-12-30T00:44:41.264Z,96743.75
2023-12-30T00:49:46.271Z,96740.97
2023-12-30T00:54:51.380Z,96740.94
2023-12-30T00:59:54.951Z,96726.69
2023-12-30T01:04:59.794Z,96736.97
2023-12-30T01:10:03.516Z,96754.28
2023-12-30T01:15:07.767Z,96750.28
2023-12-30T01:20:13.267Z,96751.53
2023-12-30T01:25:16.701Z,96726.16
2023-12-30T01:30:20.475Z,96722.75
2023-12-30T01:35:25.236Z,96741.16
2023-12-30T01:40:28.641Z,96745.75
2023-12-30T01:45:32.049Z,96752.41
2023-12-30T01:50:37.048Z,96757.69
2023-12-30T01:55:40.390Z,96758.63
2023-12-30T02:00:44.570Z,96739.50
2023-12-30T02:05:50.771Z,96732.91
2023-12-30T02:10:54.430Z,96729.84
2023-12-30T02:15:59.568Z,96735.84
2023-12-30T02:21:04.286Z,96743.88
2023-12-30T02:26:09.676Z,96738.19
2023-12-30T02:31:13.161Z,96741.22
2023-12-30T02:36:16.943Z,96753.31
2023-12-30T02:41:21.513Z,96777.81
2023-12-30T02:46:24.832Z,96790.09
2023-12-30T02:51:28.062Z,96792.28
2023-12-30T02:56:32.681Z,96795.94
2023-12-30T03:01:36.215Z,96793.69
2023-12-30T03:06:39.505Z,96801.09
2023-12-30T03:11:44.546Z,96796.59
2023-12-30T03:16:47.783Z,96803.31
2023-12-30T03:21:51.030Z,96799.50
2023-12-30T03:26:55.672Z,96782.34
2023-12-30T03:31:58.904Z,96800.41
2023-12-30T03:37:02.279Z,96808.28
2023-12-30T03:42:07.674Z,96829.00
2023-12-30T03:47:11.447Z,96830.59
2023-12-30T03:52:15.101Z,96820.91
2023-12-30T03:57:19.659Z,96823.81
2023-12-30T04:02:23.062Z,96821.97
2023-12-30T04:07:26.886Z,96839.00
2023-12-30T04:12:34.770Z,96836.09
2023-12-30T04:17:38.247Z,96843.25
2023-12-30T04:22:41.803Z,96852.25
2023-12-30T04:27:46.381Z,96844.03
2023-12-30T04:32:50.188Z,96834.56
2023-12-30T04:37:53.838Z,96833.47
2023-12-30T04:43:00.079Z,96842.22
2023-12-30T04:48:03.804Z,96845.47
2023-12-30T04:53:07.092Z,96862.75
2023-12-30T04:58:12.061Z,96864.06
2023-12-30T05:03:15.699Z,96866.53
2023-12-30T05:08:19.169Z,96884.00
2023-12-30T05:13:24.164Z,96874.00
2023-12-30T05:18:27.571Z,96895.09
2023-12-30T05:23:30.969Z,96894.81
2023-12-30T05:28:35.616Z,96890.84
2023-12-30T05:33:39.011Z,96890.94
2023-12-30T05:38:42.283Z,96902.13
2023-12-30T05:43:47.101Z,96880.13
2023-12-30T05:48:51.390Z,96890.84
2023-12-30T05:53:54.779Z,96874.78
2023-12-30T05:58:59.404Z,96893.22
2023-12-30T06:04:02.700Z,96876.72
2023-12-30T06:09:06.003Z,96882.00
2023-12-30T06:14:10.916Z,96889.50
2023-12-30T06:19:17.604Z,96927.94
2023-12-30T06:24:22.195Z,96910.25
2023-12-30T06:29:29.668Z,96934.78
2023-12-30T06:34:35.883Z,96939.75
2023-12-30T06:39:39.219Z,96957.88
2023-12-30T06:44:44.115Z,96962.41
2023-12-30T06:49:47.687Z,96977.78
2023-12-30T06:54:59.170Z,96980.31
2023-12-30T07:00:12.003Z,96981.13
2023-12-30T07:05:15.451Z,96998.16
2023-12-30T07:10:18.953Z,97010.69
2023-12-30T07:15:24.688Z,97009.25
2023-12-30T07:20:28.229Z,97008.66
2023-12-30T07:25:31.561Z,97027.13
2023-12-30T07:30:36.382Z,97021.97
2023-12-30T07:35:39.828Z,97027.25
2023-12-30T07:40:43.327Z,97026.66
2023-12-30T07:45:47.933Z,97026.88
2023-12-30T07:50:51.130Z,97034.31
2023-12-30T07:55:54.348Z,97036.97
2023-12-30T08:00:59.382Z,97038.25
2023-12-30T08:06:02.788Z,97039.91
2023-12-30T08:11:06.346Z,97045.44
2023-12-30T08:16:11.026Z,97073.59
2023-12-30T08:21:14.391Z,97073.44
2023-12-30T08:26:17.716Z,97072.75
2023-12-30T08:31:22.413Z,97070.97
2023-12-30T08:36:27.244Z,97059.56
2023-12-30T08:41:30.501Z,97070.72
2023-12-30T08:46:35.233Z,97069.88
2023-12-30T08:51:38.705Z,97065.56
2023-12-30T08:56:42.053Z,97060.75
2023-12-30T09:01:46.890Z,97085.31
2023-12-30T09:06:50.198Z,97096.56
2023-12-30T09:11:53.712Z,97091.75
2023-12-30T09:16:58.385Z,97092.44
2023-12-30T09:22:02.429Z,97084.34
2023-12-30T09:27:05.904Z,97103.00
2023-12-30T09:32:10.656Z,97098.22
2023-12-30T09:37:16.234Z,97117.47
2023-12-30T09:42:19.686Z,97120.56
2023-12-30T09:47:25.095Z,97118.00
2023-12-30T09:52:28.401Z,97127.31
2023-12-30T09:57:31.686Z,97122.47
2023-12-30T10:02:36.794Z,97126.19
2023-12-30T10:07:40.631Z,97138.41
2023-12-30T10:12:44.360Z,97141.31
2023-12-30T10:17:49.096Z,97154.34
2023-12-30T10:22:53.275Z,97157.00
2023-12-30T10:27:57.186Z,97168.06
2023-12-30T10:33:09.627Z,97161.25
2023-12-30T10:38:15.212Z,97157.16
2023-12-30T10:43:20.169Z,97166.22
2023-12-30T10:48:26.380Z,97155.13
2023-12-30T10:53:32.593Z,97141.19
2023-12-30T10:58:37.043Z,97151.59
2023-12-30T11:03:41.975Z,97130.19
2023-12-30T11:08:46.199Z,97141.41
2023-12-30T11:13:49.528Z,97122.94
2023-12-30T11:18:57.423Z,97130.09
2023-12-30T11:24:04.488Z,97137.88
2023-12-30T11:29:12.047Z,97135.75
2023-12-30T11:34:17.420Z,97128.75
2023-12-30T11:39:31.404Z,97125.75
2023-12-30T11:44:34.789Z,97133.06
2023-12-30T11:49:40.373Z,97137.50
2023-12-30T11:54:43.872Z,97142.31
2023-12-30T11:59:47.288Z,97131.78
2023-12-30T12:04:52.149Z,97127.94
2023-12-30T12:09:55.456Z,97138.63
2023-12-30T12:14:59.161Z,97129.63
2023-12-30T12:20:06.356Z,97111.72
2023-12-30T12:25:11.045Z,97106.00
2023-12-30T12:30:15.228Z,97088.75
2023-12-30T12:35:22.271Z,97101.00
2023-12-30T12:40:26.746Z,97085.09
2023-12-30T12:45:31.493Z,97095.22
2023-12-30T12:50:36.402Z,97083.97
2023-12-30T12:55:39.826Z,97093.28
2023-12-30T13:00:44.655Z,97109.59
2023-12-30T13:05:50.847Z,97109.50
2023-12-30T13:10:55.198Z,97132.31
2023-12-30T13:16:00.946Z,97129.72
2023-12-30T13:21:09.955Z,97151.50
2023-12-30T13:26:13.923Z,97154.13
2023-12-30T13:31:23.668Z,97143.78
2023-12-30T13:36:30.494Z,97151.22
2023-12-30T13:41:36.365Z,97155.69
2023-12-30T13:46:58.558Z,97147.06
2023-12-30T13:52:06.765Z,97162.28
2023-12-30T13:57:14.290Z,97158.97
2023-12-30T14:02:19.680Z,97166.81
2023-12-30T14:07:28.358Z,97162.09
2023-12-30T14:12:31.794Z,97159.44
2023-12-30T14:17:36.395Z,97156.25
2023-12-30T14:22:42.772Z,97163.25
2023-12-30T14:27:46.532Z,97173.69
2023-12-30T14:32:49.947Z,97167.22
2023-12-30T14:37:55.607Z,97168.81
2023-12-30T14:42:59.061Z,97164.75
2023-12-30T14:48:03.220Z,97160.78
2023-12-30T14:53:08.355Z,97161.22
2023-12-30T14:58:11.961Z,97163.91
2023-12-30T15:03:15.736Z,97168.06
2023-12-30T15:08:20.699Z,97172.72
2023-12-30T15:13:24.125Z,97163.56
2023-12-30T15:18:27.484Z,97167.81
2023-12-30T15:23:32.567Z,97160.59
2023-12-30T15:28:36.050Z,97158.91
2023-12-30T15:33:39.628Z,97156.28
2023-12-30T15:38:44.502Z,97160.69
2023-12-30T15:43:47.915Z,97170.81
2023-12-30T15:48:51.633Z,97157.34
2023-12-30T15:53:56.611Z,97165.16
2023-12-30T15:59:00.199Z,97171.97
2023-12-30T16:04:04.524Z,97172.38
2023-12-30T16:09:09.756Z,97168.28
2023-12-30T16:14:13.919Z,97170.44
2023-12-30T16:19:19.760Z,97165.03
2023-12-30T16:24:25.275Z,97159.50
2023-12-30T16:29:28.545Z,97162.09
2023-12-30T16:34:34.567Z,97161.50
2023-12-30T16:39:39.728Z,97167.41
2023-12-30T16:44:43.044Z,97166.06
2023-12-30T16:49:46.445Z,97173.97
2023-12-30T16:54:52.023Z,97167.91
2023-12-30T16:59:55.269Z,97168.06
2023-12-30T17:04:58.716Z,97154.06
2023-12-30T17:10:05.614Z,97147.38
2023-12-30T17:15:09.721Z,97145.50
2023-12-30T17:20:13.440Z,97153.25
2023-12-30T17:25:18.366Z,97156.53
2023-12-30T17:30:22.082Z,97166.59
2023-12-30T17:35:26.110Z,97155.00
2023-12-30T17:40:30.733Z,97150.19
2023-12-30T17:45:34.056Z,97140.44
2023-12-30T17:50:37.257Z,97148.13
2023-12-30T17:55:42.514Z,97142.47
2023-12-30T18:00:46.139Z,97140.06
2023-12-30T18:05:49.574Z,97127.84
2023-12-30T18:10:54.362Z,97123.44
2023-12-30T18:15:59.878Z,97118.16
2023-12-30T18:21:03.477Z,97124.63
2023-12-30T18:26:13.825Z,97126.81
2023-12-30T18:31:17.505Z,97125.25
2023-12-30T18:36:21.032Z,97125.91
2023-12-30T18:41:25.794Z,97128.31
2023-12-30T18:46:30.347Z,97123.72
2023-12-30T18:51:33.696Z,97115.84
2023-12-30T18:56:38.993Z,97126.66
2023-12-30T19:01:44.651Z,97114.00
2023-12-30T19:06:48.009Z,97108.81
2023-12-30T19:11:52.829Z,97105.22
2023-12-30T19:16:56.151Z,97110.91
2023-12-30T19:21:59.706Z,97115.03
2023-12-30T19:27:04.617Z,97119.03
2023-12-30T19:32:08.993Z,97112.25
2023-12-30T19:37:13.225Z,97112.25
2023-12-30T19:42:18.835Z,97101.16
2023-12-30T19:47:22.654Z,97105.03
2023-12-30T19:52:26.998Z,97114.97
2023-12-30T19:57:32.043Z,97122.44
2023-12-30T20:02:35.660Z,97108.50
2023-12-30T20:07:39.562Z,97116.81
2023-12-30T20:12:45.366Z,97105.50
2023-12-30T20:17:49.038Z,97099.03
2023-12-30T20:22:52.563Z,97104.44
2023-12-30T20:27:58.129Z,97107.06
2023-12-30T20:33:02.287Z,97098.44
2023-12-30T20:38:06.191Z,97094.00
2023-12-30T20:43:11.088Z,97097.81
2023-12-30T20:48:14.627Z,97095.16
2023-12-30T20:53:18.090Z,97087.56
2023-12-30T20:58:22.858Z,97076.88
2023-12-30T21:03:27.402Z,97075.03
2023-12-30T21:08:30.934Z,97069.06
2023-12-30T21:13:37.923Z,97070.78
2023-12-30T21:18:41.310Z,97063.22
2023-12-30T21:23:46.704Z,97067.50
2023-12-30T21:28:51.526Z,97067.41
2023-12-30T21:33:55.209Z,97057.66
2023-12-30T21:38:58.615Z,97049.13
2023-12-30T21:44:03.639Z,97048.50
2023-12-30T21:49:07.060Z,97038.53
2023-12-30T21:54:11.141Z,97042.41
2023-12-30T21:59:15.750Z,97037.34
2023-12-30T22:04:20.785Z,97044.59
2023-12-30T22:09:24.019Z,97035.13
2023-12-30T22:14:28.948Z,97024.63
2023-12-30T22:19:32.917Z,97016.75
2023-12-30T22:24:37.779Z,97013.81
2023-12-30T22:29:43.782Z,97004.66
2023-12-30T22:34:47.422Z,96998.38
2023-12-30T22:39:51.868Z,97000.03
2023-12-30T22:44:57.807Z,96997.31
2023-12-30T22:50:01.525Z,96990.81
2023-12-30T22:55:05.597Z,96987.44
2023-12-30T23:00:12.528Z,96979.16
2023-12-30T23:05:15.970Z,96977.91
2023-12-30T23:10:19.788Z,96971.06
2023-12-30T23:15:25.969Z,96967.94
2023-12-30T23:20:29.347Z,96966.38
2023-12-30T23:25:33.306Z,96959.44
2023-12-30T23:30:38.102Z,96966.25
2023-12-30T23:35:41.367Z,96958.06
2023-12-30T23:40:44.795Z,96949.56
2023-12-30T23:45:49.635Z,96941.97
2023-12-30T23:50:53.269Z,96935.69
2023-12-30T23:55:56.916Z,96930.22
